createdAt,value
2022-11-30T00:02:39.115Z,9.70
2022-11-30T00:07:41.819Z,9.77
2022-11-30T00:12:44.595Z,9.78
2022-11-30T00:17:47.492Z,9.79
2022-11-30T00:22:49.855Z,9.69
2022-11-30T00:27:52.595Z,9.69
2022-11-30T00:32:58.315Z,9.56
2022-11-30T00:38:03.359Z,9.49
2022-11-30T00:43:05.709Z,9.64
2022-11-30T00:48:08.121Z,9.64
2022-11-30T00:53:10.844Z,9.64
2022-11-30T00:58:14.371Z,9.39
2022-11-30T01:03:16.999Z,9.48
2022-11-30T01:08:19.386Z,9.57
2022-11-30T01:13:21.782Z,9.63
2022-11-30T01:18:24.217Z,9.53
2022-11-30T01:23:26.596Z,9.59
2022-11-30T01:28:29.045Z,9.58
2022-11-30T01:33:31.891Z,9.66
2022-11-30T01:38:36.784Z,9.72
2022-11-30T01:43:52.791Z,9.38
2022-11-30T01:49:00.799Z,9.35
2022-11-30T01:54:06.039Z,9.47
2022-11-30T01:59:08.709Z,9.54
2022-11-30T02:04:22.152Z,9.52
2022-11-30T02:09:25.903Z,9.48
2022-11-30T02:14:45.538Z,9.52
2022-11-30T02:19:51.281Z,9.62
2022-11-30T02:25:34.348Z,9.59
2022-11-30T02:30:40.763Z,9.57
2022-11-30T02:35:53.077Z,9.75
2022-11-30T02:40:57.080Z,9.68
2022-11-30T02:46:05.970Z,9.49
2022-11-30T02:51:11.207Z,9.54
2022-11-30T02:56:13.765Z,9.49
2022-11-30T03:01:16.282Z,9.58
2022-11-30T03:06:18.762Z,9.60
2022-11-30T03:11:25.806Z,9.55
2022-11-30T03:16:28.180Z,9.47
2022-11-30T03:21:30.694Z,9.47
2022-11-30T03:26:33.041Z,9.56
2022-11-30T03:31:35.495Z,9.46
2022-11-30T03:36:38.038Z,9.41
2022-11-30T03:41:40.719Z,9.42
2022-11-30T03:46:43.330Z,9.36
2022-11-30T03:51:45.710Z,9.35
2022-11-30T03:56:48.045Z,9.40
2022-11-30T04:01:50.457Z,9.34
2022-11-30T04:06:52.874Z,9.27
2022-11-30T04:11:55.306Z,9.46
2022-11-30T04:16:57.703Z,9.35
2022-11-30T04:22:00.116Z,9.27
2022-11-30T04:27:02.521Z,9.23
2022-11-30T04:32:04.985Z,9.07
2022-11-30T04:37:07.629Z,8.91
2022-11-30T04:42:10.635Z,8.83
2022-11-30T04:47:12.997Z,8.91
2022-11-30T04:52:15.542Z,8.85
2022-11-30T04:57:18.028Z,8.94
2022-11-30T05:02:20.447Z,9.09
2022-11-30T05:07:22.879Z,9.12
2022-11-30T05:12:25.318Z,9.21
2022-11-30T05:17:27.738Z,9.24
2022-11-30T05:22:30.116Z,9.34
2022-11-30T05:27:32.543Z,9.35
2022-11-30T05:32:35.205Z,9.39
2022-11-30T05:37:37.842Z,9.38
2022-11-30T05:42:40.562Z,9.23
2022-11-30T05:47:43.053Z,9.35
2022-11-30T05:52:45.491Z,9.36
2022-11-30T05:57:47.866Z,9.34
2022-11-30T06:02:55.178Z,9.40
2022-11-30T06:07:59.895Z,9.42
2022-11-30T06:13:08.182Z,9.37
2022-11-30T06:18:13.215Z,9.43
2022-11-30T06:23:15.557Z,9.41
2022-11-30T06:28:17.895Z,9.49
2022-11-30T06:33:23.645Z,9.50
2022-11-30T06:38:26.412Z,9.47
2022-11-30T06:43:32.117Z,9.53
2022-11-30T06:48:35.567Z,9.51
2022-11-30T06:53:38.367Z,9.46
2022-11-30T06:58:41.569Z,9.48
2022-11-30T07:03:44.172Z,9.52
2022-11-30T07:08:46.567Z,9.54
2022-11-30T07:13:48.928Z,9.58
2022-11-30T07:18:51.358Z,9.64
2022-11-30T07:24:12.640Z,9.62
2022-11-30T07:29:15.017Z,9.62
2022-11-30T07:34:17.395Z,9.61
2022-11-30T07:39:19.745Z,9.63
2022-11-30T07:44:22.150Z,9.57
2022-11-30T07:49:24.556Z,9.58
2022-11-30T07:54:26.949Z,9.59
2022-11-30T07:59:29.321Z,9.61
2022-11-30T08:04:31.729Z,9.60
2022-11-30T08:09:34.551Z,9.65
2022-11-30T08:14:56.508Z,9.69
2022-11-30T08:19:59.290Z,9.79
2022-11-30T08:25:02.114Z,9.61
2022-11-30T08:30:04.955Z,9.85
2022-11-30T08:35:07.776Z,9.52
2022-11-30T08:40:11.028Z,9.67
2022-11-30T08:45:13.479Z,9.80
2022-11-30T08:50:15.930Z,9.71
2022-11-30T08:55:18.316Z,9.47
2022-11-30T09:00:21.155Z,9.33
2022-11-30T09:05:24.365Z,9.46
2022-11-30T09:10:27.247Z,9.39
2022-11-30T09:15:29.818Z,9.31
2022-11-30T09:20:32.303Z,9.49
2022-11-30T09:25:34.795Z,9.70
2022-11-30T09:30:37.311Z,9.79
2022-11-30T09:35:39.977Z,9.95
2022-11-30T09:40:42.801Z,10.05
2022-11-30T09:46:01.888Z,10.11
2022-11-30T09:51:16.760Z,10.15
2022-11-30T09:56:30.467Z,10.15
2022-11-30T10:01:37.467Z,10.24
2022-11-30T10:06:54.761Z,10.25
2022-11-30T10:12:13.597Z,10.40
2022-11-30T10:17:22.942Z,10.57
2022-11-30T10:22:47.259Z,10.78
2022-11-30T10:27:54.835Z,10.83
2022-11-30T10:33:05.411Z,10.64
2022-11-30T10:38:31.913Z,10.47
2022-11-30T10:43:55.319Z,10.41
2022-11-30T10:49:08.300Z,10.31
2022-11-30T10:54:20.581Z,10.34
2022-11-30T10:59:35.488Z,10.45
2022-11-30T11:04:37.890Z,10.34
2022-11-30T11:09:52.413Z,10.32
2022-11-30T11:15:22.380Z,10.30
2022-11-30T11:20:39.474Z,10.38
2022-11-30T11:25:43.366Z,10.39
2022-11-30T11:30:45.908Z,10.45
2022-11-30T11:35:52.274Z,10.42
2022-11-30T11:41:04.478Z,10.45
2022-11-30T11:46:14.655Z,10.41
2022-11-30T11:51:34.045Z,10.44
2022-11-30T11:56:37.969Z,10.47
2022-11-30T12:01:45.994Z,10.50
2022-11-30T12:06:51.908Z,10.50
2022-11-30T12:11:54.468Z,10.51
2022-11-30T12:17:05.326Z,10.59
2022-11-30T12:22:25.421Z,10.53
2022-11-30T12:27:42.606Z,10.34
2022-11-30T12:33:07.360Z,10.43
2022-11-30T12:38:49.948Z,10.52
2022-11-30T12:44:17.007Z,10.50
2022-11-30T12:49:45.021Z,10.54
2022-11-30T12:55:04.723Z,10.45
2022-11-30T13:00:19.334Z,10.28
2022-11-30T13:05:54.583Z,10.37
2022-11-30T13:11:08.516Z,10.32
2022-11-30T13:16:11.425Z,10.24
2022-11-30T13:21:42.232Z,10.17
2022-11-30T13:27:01.822Z,10.27
2022-11-30T13:32:41.132Z,10.27
2022-11-30T13:37:36.783Z,10.28
2022-11-30T13:42:50.126Z,10.21
2022-11-30T13:47:56.438Z,10.14
2022-11-30T13:52:59.068Z,10.17
2022-11-30T13:58:01.518Z,10.21
2022-11-30T14:03:21.615Z,10.25
2022-11-30T14:08:24.053Z,10.11
2022-11-30T14:13:31.402Z,10.11
2022-11-30T14:18:44.369Z,10.21
2022-11-30T14:23:57.751Z,10.20
2022-11-30T14:29:08.907Z,10.23
2022-11-30T14:34:36.322Z,10.18
2022-11-30T14:39:44.251Z,10.14
2022-11-30T14:44:47.879Z,10.18
2022-11-30T14:49:52.581Z,10.03
2022-11-30T14:55:12.558Z,10.12
2022-11-30T15:00:18.255Z,10.13
2022-11-30T15:05:28.800Z,10.13
2022-11-30T15:10:34.234Z,10.11
2022-11-30T15:15:41.601Z,10.15
2022-11-30T15:21:00.002Z,10.23
2022-11-30T15:26:11.760Z,10.22
2022-11-30T15:31:16.629Z,10.20
2022-11-30T15:36:32.495Z,10.15
2022-11-30T15:41:36.721Z,10.17
2022-11-30T15:46:46.422Z,10.07
2022-11-30T15:52:05.108Z,10.12
2022-11-30T15:57:09.301Z,9.91
2022-11-30T16:02:33.414Z,10.01
2022-11-30T16:07:48.767Z,10.16
2022-11-30T16:12:53.031Z,10.18
2022-11-30T16:18:23.002Z,10.08
2022-11-30T16:23:26.638Z,9.90
2022-11-30T16:28:29.020Z,10.14
2022-11-30T16:33:33.480Z,10.19
2022-11-30T16:38:35.881Z,9.95
2022-11-30T16:43:41.264Z,9.94
2022-11-30T16:48:44.135Z,9.95
2022-11-30T16:53:47.300Z,9.97
2022-11-30T16:58:50.158Z,10.08
2022-11-30T17:03:52.832Z,9.87
2022-11-30T17:08:55.234Z,10.01
2022-11-30T17:13:57.734Z,10.02
2022-11-30T17:19:00.140Z,10.13
2022-11-30T17:24:03.435Z,10.18
2022-11-30T17:29:06.232Z,10.13
2022-11-30T17:34:08.828Z,10.20
2022-11-30T17:39:11.530Z,10.09
2022-11-30T17:44:14.167Z,10.03
2022-11-30T17:49:16.600Z,10.10
2022-11-30T17:54:19.293Z,9.95
2022-11-30T17:59:22.264Z,9.96
2022-11-30T18:04:24.733Z,9.90
2022-11-30T18:09:27.838Z,9.87
2022-11-30T18:14:30.258Z,9.95
2022-11-30T18:19:32.721Z,9.96
2022-11-30T18:24:35.149Z,9.92
2022-11-30T18:29:37.521Z,9.87
2022-11-30T18:34:40.274Z,9.87
2022-11-30T18:39:43.218Z,9.69
2022-11-30T18:44:45.963Z,9.76
2022-11-30T18:49:48.619Z,9.82
2022-11-30T18:54:51.267Z,9.69
2022-11-30T18:59:54.132Z,9.72
2022-11-30T19:04:56.610Z,9.69
2022-11-30T19:09:58.972Z,9.69
2022-11-30T19:15:05.026Z,9.76
2022-11-30T19:20:08.007Z,9.78
2022-11-30T19:25:10.620Z,9.81
2022-11-30T19:30:13.897Z,9.69
2022-11-30T19:35:16.404Z,9.76
2022-11-30T19:40:18.903Z,9.59
2022-11-30T19:45:21.671Z,9.46
2022-11-30T19:50:24.464Z,9.51
2022-11-30T19:55:29.447Z,9.53
2022-11-30T20:00:31.881Z,9.47
2022-11-30T20:05:34.683Z,9.57
2022-11-30T20:10:40.726Z,9.49
2022-11-30T20:15:43.538Z,9.38
2022-11-30T20:20:46.217Z,9.47
2022-11-30T20:25:48.807Z,9.28
2022-11-30T20:30:51.313Z,9.25
2022-11-30T20:35:53.761Z,9.24
2022-11-30T20:40:56.467Z,9.28
2022-11-30T20:45:58.920Z,9.31
2022-11-30T20:51:29.293Z,9.25
2022-11-30T20:56:32.659Z,9.16
2022-11-30T21:01:35.762Z,9.17
2022-11-30T21:06:38.548Z,9.16
2022-11-30T21:11:41.246Z,9.17
2022-11-30T21:16:43.922Z,9.11
2022-11-30T21:21:46.565Z,9.02
2022-11-30T21:26:49.091Z,9.10
2022-11-30T21:31:51.453Z,8.94
2022-11-30T21:36:53.927Z,8.79
2022-11-30T21:41:56.575Z,8.86
2022-11-30T21:46:59.172Z,8.87
2022-11-30T21:52:01.602Z,8.64
2022-11-30T21:57:04.180Z,8.63
2022-11-30T22:02:06.661Z,8.63
2022-11-30T22:07:12.866Z,8.80
2022-11-30T22:12:15.387Z,8.90
2022-11-30T22:17:17.803Z,8.70
2022-11-30T22:22:20.175Z,8.64
2022-11-30T22:27:22.583Z,8.80
2022-11-30T22:32:25.030Z,8.65
2022-11-30T22:37:27.409Z,8.70
2022-11-30T22:42:29.771Z,8.66
2022-11-30T22:47:32.165Z,8.70
2022-11-30T22:53:01.475Z,8.75
2022-11-30T22:57:57.124Z,8.75
2022-11-30T23:02:59.559Z,8.59
2022-11-30T23:08:02.071Z,8.70
2022-11-30T23:13:04.642Z,8.66
2022-11-30T23:18:07.114Z,8.52
2022-11-30T23:23:09.510Z,8.42
2022-11-30T23:28:12.282Z,8.54
2022-11-30T23:33:14.910Z,8.51
2022-11-30T23:38:17.341Z,8.57
2022-11-30T23:43:19.716Z,8.52
2022-11-30T23:48:22.105Z,8.54
2022-11-30T23:53:24.976Z,8.65
2022-11-30T23:58:27.419Z,9.15
